Diamond Back — WDE6773 — position and weather

sailwx.info

Track history (hours):
 
Tides and Currents Weather Stations Pressure Air Temp Water Temp Dewpoint Dewpoint Depression Visibility Wind Speed Wind Dir Waves Ship Positions

Diamond Back

Owner: PENINSULA BAY ENTERPRISES LTD CO, Port Bolivar, TX. More information available from US FCC via Universal Licensing System and Coast Guard Vessel Documentation Center.

Last reported at 2018-Feb-21 03:30 UTC. Time now 2018-Feb-21 03:51 UTC.
Position N 29°33' W 095°00'.

Length 11 m; draft 2.5 m.

Type: Towing. MMSI: 367384650.

Date/timePositionNaut miles runAvg speedWind from/ knotsBaromVisibWave heightAir tempDewpointWater temp
2018-Feb-21 03:30N 29°33' W 095°00'3 6.4
2018-Feb-21 02:59N 29°32' W 094°56'3 5.6
2018-Feb-21 02:30N 29°31' W 094°53'9 3.1
2018-Feb-20 23:39N 29°23' W 094°51'9 3.2
2018-Feb-20 20:50N 29°31' W 094°53'2 4.8
2018-Feb-20 20:31N 29°32' W 094°55'3 5.4
2018-Feb-20 20:00N 29°33' W 094°58'3 5.0
2018-Feb-20 19:30N 29°33' W 095°01'1 2.0
2018-Feb-20 19:00N 29°33' W 095°02'0 0.6
2018-Feb-20 18:30N 29°33' W 095°02'0 0.0
2018-Feb-20 18:01N 29°33' W 095°02'0 0.0
2018-Feb-20 17:31N 29°33' W 095°02'0 0.0
2018-Feb-20 17:00N 29°33' W 095°02'0 0.0
2018-Feb-20 16:31N 29°33' W 095°02'0 0.0
2018-Feb-20 16:00N 29°33' W 095°02'0 0.6
2018-Feb-20 15:30N 29°33' W 095°02'0 0.1
2018-Feb-20 15:00N 29°33' W 095°02'0 0.0
2018-Feb-20 14:29N 29°33' W 095°02'0 0.0
2018-Feb-20 14:00N 29°33' W 095°02'0 0.0
2018-Feb-20 13:31N 29°33' W 095°02'0 0.0
2018-Feb-20 13:00N 29°33' W 095°02'0 0.0
2018-Feb-20 12:29N 29°33' W 095°02'0 0.0
2018-Feb-20 11:56N 29°33' W 095°02'0 0.0
2018-Feb-20 11:19N 29°33' W 095°02'0 0.0
2018-Feb-20 11:00N 29°33' W 095°02'0 0.0
2018-Feb-20 10:31N 29°33' W 095°02'0 0.0
2018-Feb-20 10:01N 29°33' W 095°02'0 0.0
2018-Feb-20 09:30N 29°33' W 095°02'0 0.0
2018-Feb-20 08:59N 29°33' W 095°02'0 0.0
2018-Feb-20 08:31N 29°33' W 095°02'0 0.0
2018-Feb-20 08:01N 29°33' W 095°02'0 0.0
2018-Feb-20 07:30N 29°33' W 095°02'0 0.0
2018-Feb-20 06:59N 29°33' W 095°02'0 0.0
2018-Feb-20 06:30N 29°33' W 095°02'0 0.0
2018-Feb-20 06:00N 29°33' W 095°02'0 0.0
2018-Feb-20 05:30N 29°33' W 095°02'0 0.0
2018-Feb-20 05:00N 29°33' W 095°02'0 0.0
2018-Feb-20 04:28N 29°33' W 095°02'1 2.3
2018-Feb-20 04:00N 29°33' W 095°01'3 6.6
2018-Feb-20 03:30N 29°33' W 094°57'4 6.7
2018-Feb-20 02:58N 29°31' W 094°53'9 1.5
2018-Feb-19 20:49N 29°23' W 094°51'0 0.0
2018-Feb-19 20:30N 29°23' W 094°51'1 1.4
2018-Feb-19 19:58N 29°23' W 094°51'5 5.9
2018-Feb-19 19:11N 29°28' W 094°52'2 6.0
2018-Feb-19 18:50N 29°30' W 094°53'2 5.8
2018-Feb-19 18:29N 29°32' W 094°54'3 5.5
2018-Feb-19 18:01N 29°33' W 094°57'3 5.3
2018-Feb-19 17:30N 29°33' W 094°60'2 4.0
2018-Feb-19 17:01N 29°33' W 095°02'1 1.1
2018-Feb-19 16:31N 29°33' W 095°03'0 0.4
2018-Feb-19 15:56N 29°33' W 095°02'0 0.0
2018-Feb-19 15:31N 29°33' W 095°02'0 0.0
2018-Feb-19 15:01N 29°33' W 095°02'0 0.0
2018-Feb-19 14:30N 29°33' W 095°02'0 0.0
2018-Feb-19 14:01N 29°33' W 095°02'0 0.0
2018-Feb-19 13:31N 29°33' W 095°02'0 0.0
2018-Feb-19 13:00N 29°33' W 095°02'0 0.1
2018-Feb-19 12:29N 29°33' W 095°02'2 3.2
2018-Feb-19 12:01N 29°33' W 095°00'3 6.5
2018-Feb-19 11:30N 29°33' W 094°57'4 6.5
2018-Feb-19 10:57N 29°31' W 094°53'4 7.7
2018-Feb-19 10:25N 29°27' W 094°51'4 7.8
2018-Feb-19 09:57N 29°24' W 094°49'2 5.7
2018-Feb-19 09:30N 29°23' W 094°47'1 1.2
2018-Feb-19 09:00N 29°23' W 094°46'0 0.0
2018-Feb-19 08:30N 29°23' W 094°46'0 0.0
2018-Feb-19 07:58N 29°23' W 094°46'0 0.0
2018-Feb-19 07:30N 29°23' W 094°46'0 0.0
2018-Feb-19 07:01N 29°23' W 094°46'0 0.0
2018-Feb-19 06:30N 29°23' W 094°46'0 0.0
2018-Feb-19 06:00N 29°23' W 094°46'0 0.0
2018-Feb-19 05:30N 29°23' W 094°46'0 0.0
2018-Feb-19 05:00N 29°23' W 094°46'0 0.0
2018-Feb-19 04:29N 29°23' W 094°46'0 0.0
2018-Feb-19 04:01N 29°23' W 094°46'0 0.0
2018-Feb-18 20:05N 29°23' W 094°46'0 0.0
2018-Feb-18 19:51N 29°23' W 094°46'0 0.0
2018-Feb-18 19:27N 29°23' W 094°46'0 0.0
2018-Feb-18 19:00N 29°23' W 094°46'0 0.0
2018-Feb-18 18:24N 29°23' W 094°46'0 0.0
2018-Feb-18 17:56N 29°23' W 094°46'0 0.0
2018-Feb-18 17:29N 29°23' W 094°46'0 0.0
2018-Feb-18 16:59N 29°23' W 094°46'0 0.0
2018-Feb-18 16:26N 29°23' W 094°46'0 0.0
2018-Feb-18 15:58N 29°23' W 094°46'0 0.0
2018-Feb-18 15:29N 29°23' W 094°46'0 0.0
2018-Feb-18 14:54N 29°23' W 094°46'0 0.0
2018-Feb-18 14:29N 29°23' W 094°46'0 0.0
2018-Feb-18 13:10N 29°23' W 094°46'0 0.0
2018-Feb-18 11:44N 29°23' W 094°46'0 0.0
2018-Feb-18 09:54N 29°23' W 094°46'0 0.0
2018-Feb-18 07:40N 29°23' W 094°46'0 0.0
2018-Feb-18 02:08N 29°23' W 094°46'0 0.0
2018-Feb-18 01:30N 29°23' W 094°46'0 0.0
2018-Feb-17 23:51N 29°23' W 094°46'0 0.0
2018-Feb-17 23:29N 29°23' W 094°46'0 0.0
2018-Feb-17 22:46N 29°23' W 094°46'0 0.0
2018-Feb-17 22:24N 29°23' W 094°46'0 0.0
2018-Feb-17 08:44N 29°23' W 094°46'0 0.0
2018-Feb-17 07:55N 29°23' W 094°46'0 0.0
2018-Feb-17 07:30N 29°23' W 094°46'0 0.0
2018-Feb-17 05:33N 29°23' W 094°46'0 0.0
2018-Feb-17 05:30N 29°23' W 094°46'0 0.0
2018-Feb-17 04:50N 29°23' W 094°46'0 0.0
2018-Feb-17 04:28N 29°23' W 094°46'0 0.0
2018-Feb-17 04:00N 29°23' W 094°46'0 0.0
2018-Feb-17 03:30N 29°23' W 094°46'0 0.0
2018-Feb-17 02:58N 29°23' W 094°46'0 0.0
2018-Feb-17 02:16N 29°23' W 094°46'0 0.0
2018-Feb-17 02:01N 29°23' W 094°46'0 0.0
2018-Feb-17 01:30N 29°23' W 094°46'0 0.0
2018-Feb-17 00:52N 29°23' W 094°46'0 0.0
2018-Feb-17 00:30N 29°23' W 094°46'0 0.0
2018-Feb-16 23:58N 29°23' W 094°46'0 0.0
2018-Feb-16 23:30N 29°23' W 094°46'0 0.0
2018-Feb-16 10:01N 29°23' W 094°46'0 0.0
2018-Feb-16 09:03N 29°23' W 094°46'0 0.0
2018-Feb-16 08:55N 29°23' W 094°46'0 0.0
2018-Feb-16 08:28N 29°23' W 094°46'0 0.0
2018-Feb-16 07:56N 29°23' W 094°46'0 0.0
2018-Feb-16 07:29N 29°23' W 094°46'0 0.0
2018-Feb-16 06:59N 29°23' W 094°46'0 0.0
2018-Feb-16 06:30N 29°23' W 094°46'0 0.0
2018-Feb-16 06:01N 29°23' W 094°46'0 0.0
2018-Feb-16 05:30N 29°23' W 094°46'0 0.0
2018-Feb-16 05:00N 29°23' W 094°46'0 0.0
2018-Feb-16 04:30N 29°23' W 094°46'0 0.0
2018-Feb-16 03:59N 29°23' W 094°46'0 0.0
2018-Feb-16 03:29N 29°23' W 094°46'0 0.0
2018-Feb-16 03:00N 29°23' W 094°46'0 0.0
2018-Feb-16 02:30N 29°23' W 094°46'0 0.0
2018-Feb-16 02:00N 29°23' W 094°46'0 0.0
2018-Feb-16 01:24N 29°23' W 094°46'0 0.0
2018-Feb-16 00:56N 29°23' W 094°46'0 0.0
2018-Feb-16 00:30N 29°23' W 094°46'0 0.0
2018-Feb-15 23:51N 29°23' W 094°46'0 0.0
2018-Feb-15 23:30N 29°23' W 094°46'0 0.0
2018-Feb-15 22:28N 29°23' W 094°46'0 0.0
2018-Feb-15 21:56N 29°23' W 094°46'0 0.0
2018-Feb-15 20:58N 29°23' W 094°46'0 0.0
2018-Feb-15 20:24N 29°23' W 094°46'0 0.0
2018-Feb-15 16:26N 29°23' W 094°46'0 0.0
2018-Feb-15 15:38N 29°23' W 094°46'0 0.1
2018-Feb-15 15:31N 29°23' W 094°46'0 0.0
2018-Feb-15 14:21N 29°23' W 094°46'0 0.0
2018-Feb-15 13:30N 29°23' W 094°46'0 0.0
2018-Feb-15 12:56N 29°23' W 094°46'0 0.0
2018-Feb-15 11:47N 29°23' W 094°46'0 0.0
2018-Feb-15 11:22N 29°23' W 094°46'0 0.0
2018-Feb-15 10:25N 29°23' W 094°46'0 0.0
2018-Feb-15 09:59N 29°23' W 094°46'0 0.0
2018-Feb-15 09:30N 29°23' W 094°46'0 0.0
2018-Feb-15 09:00N 29°23' W 094°46'0 0.0
2018-Feb-15 08:30N 29°23' W 094°46'0 0.0
2018-Feb-15 08:00N 29°23' W 094°46'0 0.0
2018-Feb-15 07:30N 29°23' W 094°46'0 0.0
2018-Feb-15 07:01N 29°23' W 094°46'0 0.0
2018-Feb-15 06:30N 29°23' W 094°46'0 0.0
2018-Feb-15 06:00N 29°23' W 094°46'0 0.0
2018-Feb-15 05:30N 29°23' W 094°46'0 0.0
2018-Feb-15 05:00N 29°23' W 094°46'0 0.0
2018-Feb-15 04:30N 29°23' W 094°46'0 0.0
2018-Feb-15 04:01N 29°23' W 094°46'0 0.0
2018-Feb-15 03:30N 29°23' W 094°46'0 0.0
2018-Feb-15 03:01N 29°23' W 094°46'0 0.0
2018-Feb-15 02:31N 29°23' W 094°46'0 0.0
2018-Feb-15 01:53N 29°23' W 094°46'0 0.0
2018-Feb-15 01:30N 29°23' W 094°46'0 0.0
2018-Feb-15 00:49N 29°23' W 094°46'0 0.0
2018-Feb-15 00:22N 29°23' W 094°46'0 0.0
2018-Feb-14 23:57N 29°23' W 094°46'0 0.0
2018-Feb-14 23:14N 29°23' W 094°46'0 0.0
2018-Feb-14 22:59N 29°23' W 094°46'0 0.0
2018-Feb-14 22:29N 29°23' W 094°46'0 0.0
2018-Feb-14 21:39N 29°23' W 094°46'0 0.0
2018-Feb-14 20:16N 29°23' W 094°46'0 0.0
2018-Feb-14 19:35N 29°23' W 094°46'0 0.1
2018-Feb-14 19:29N 29°23' W 094°46'0 0.0
2018-Feb-14 18:59N 29°23' W 094°46'0 0.0
2018-Feb-14 18:30N 29°23' W 094°46'0 0.0
2018-Feb-14 17:58N 29°23' W 094°46'0 0.0
2018-Feb-14 17:30N 29°23' W 094°46'0 0.0
2018-Feb-14 17:00N 29°23' W 094°46'0 0.0
2018-Feb-14 16:26N 29°23' W 094°46'0 0.0
2018-Feb-14 16:00N 29°23' W 094°46'0 0.0
2018-Feb-14 15:28N 29°23' W 094°46'0 0.0
2018-Feb-14 15:00N 29°23' W 094°46'0 0.0
2018-Feb-14 14:30N 29°23' W 094°46'0 0.0
2018-Feb-14 13:52N 29°23' W 094°46'0 0.0
2018-Feb-14 13:28N 29°23' W 094°46'0 0.0
2018-Feb-14 12:59N 29°23' W 094°46'0 0.0
2018-Feb-14 12:21N 29°23' W 094°46'0 0.0
2018-Feb-14 11:57N 29°23' W 094°46'0 0.0
2018-Feb-14 11:20N 29°23' W 094°46'0 0.0
2018-Feb-14 10:58N 29°23' W 094°46'0 0.0
2018-Feb-14 04:05N 29°23' W 094°46'12 1.7
2018-Feb-13 21:02N 29°32' W 094°54'0 6.4
2018-Feb-13 21:01N 29°32' W 094°54'3 6.2
2018-Feb-13 20:30N 29°33' W 094°58'2 3.6
2018-Feb-13 20:01N 29°33' W 094°60'0 0.0
2018-Feb-13 19:31N 29°33' W 094°60'0 0.0
2018-Feb-13 19:00N 29°33' W 094°60'0 0.0
2018-Feb-13 18:30N 29°33' W 094°60'0 0.4
2018-Feb-13 18:01N 29°33' W 095°00'2 3.4
2018-Feb-13 17:31N 29°33' W 095°02'0 0.5
2018-Feb-13 17:00N 29°33' W 095°02'0 0.0
2018-Feb-13 16:30N 29°33' W 095°02'0 0.0
2018-Feb-13 16:00N 29°33' W 095°02'0 0.0
2018-Feb-13 15:28N 29°33' W 095°02'0 0.0
2018-Feb-13 15:01N 29°33' W 095°02'0 0.0
2018-Feb-13 14:31N 29°33' W 095°02'0 0.0
2018-Feb-13 14:01N 29°33' W 095°02'0 0.1
2018-Feb-13 13:30N 29°33' W 095°02'0 0.4
2018-Feb-13 13:00N 29°33' W 095°02'0 0.0
2018-Feb-13 12:31N 29°33' W 095°02'0 0.0
2018-Feb-13 12:00N 29°33' W 095°02'0 0.0
2018-Feb-13 11:30N 29°33' W 095°02'0 0.0
2018-Feb-13 11:01N 29°33' W 095°02'0 0.0
2018-Feb-13 10:31N 29°33' W 095°02'0 0.0
2018-Feb-13 10:01N 29°33' W 095°02'1 0.2
2018-Feb-13 02:08N 29°33' W 095°01'1 5.9
2018-Feb-13 02:01N 29°33' W 094°60'3 6.6
2018-Feb-13 01:31N 29°32' W 094°56'2 0.2
2018-Feb-12 18:34N 29°32' W 094°54'0 5.6
2018-Feb-12 18:30N 29°32' W 094°55'3 5.9
2018-Feb-12 18:01N 29°33' W 094°58'3 5.4
2018-Feb-12 17:30N 29°33' W 095°01'1 2.1
2018-Feb-12 17:01N 29°33' W 095°02'0 0.4
2018-Feb-12 16:31N 29°33' W 095°02'0 0.0
2018-Feb-12 16:01N 29°33' W 095°02'0 0.0
2018-Feb-12 15:31N 29°33' W 095°02'0 0.0
2018-Feb-12 15:01N 29°33' W 095°02'0 0.0
2018-Feb-12 14:31N 29°33' W 095°02'0 0.0
2018-Feb-12 14:00N 29°33' W 095°02'0 0.0
2018-Feb-12 13:30N 29°33' W 095°02'0 0.0
2018-Feb-12 13:00N 29°33' W 095°02'0 0.9
2018-Feb-12 12:30N 29°33' W 095°02'2 4.1
2018-Feb-12 12:00N 29°33' W 094°59'3 6.4
2018-Feb-12 11:28N 29°32' W 094°55'12 1.3
2018-Feb-12 01:42N 29°23' W 094°46'0 0.0
2018-Feb-12 01:29N 29°23' W 094°46'  
Track history (hours):
 
Tides and Currents Weather Stations Pressure Air Temp Water Temp Dewpoint Dewpoint Depression Visibility Wind Speed Wind Dir Waves Ship Positions

Diamond Back

Owner: PENINSULA BAY ENTERPRISES LTD CO, Port Bolivar, TX. More information available from US FCC via Universal Licensing System and Coast Guard Vessel Documentation Center.

Last reported at 2018-Feb-21 03:30 UTC. Time now 2018-Feb-21 03:51 UTC.
Position N 29°33' W 095°00'.

Length 11 m; draft 2.5 m.

Type: Towing. MMSI: 367384650.

Date/timePositionNaut miles runAvg speedWind from/ knotsBaromVisibWave heightAir tempDewpointWater temp
2018-Feb-21 03:30N 29°33' W 095°00'3 6.4
2018-Feb-21 02:59N 29°32' W 094°56'3 5.6
2018-Feb-21 02:30N 29°31' W 094°53'9 3.1
2018-Feb-20 23:39N 29°23' W 094°51'9 3.2
2018-Feb-20 20:50N 29°31' W 094°53'2 4.8
2018-Feb-20 20:31N 29°32' W 094°55'3 5.4
2018-Feb-20 20:00N 29°33' W 094°58'3 5.0
2018-Feb-20 19:30N 29°33' W 095°01'1 2.0
2018-Feb-20 19:00N 29°33' W 095°02'0 0.6
2018-Feb-20 18:30N 29°33' W 095°02'0 0.0
2018-Feb-20 18:01N 29°33' W 095°02'0 0.0
2018-Feb-20 17:31N 29°33' W 095°02'0 0.0
2018-Feb-20 17:00N 29°33' W 095°02'0 0.0
2018-Feb-20 16:31N 29°33' W 095°02'0 0.0
2018-Feb-20 16:00N 29°33' W 095°02'0 0.6
2018-Feb-20 15:30N 29°33' W 095°02'0 0.1
2018-Feb-20 15:00N 29°33' W 095°02'0 0.0
2018-Feb-20 14:29N 29°33' W 095°02'0 0.0
2018-Feb-20 14:00N 29°33' W 095°02'0 0.0
2018-Feb-20 13:31N 29°33' W 095°02'0 0.0
2018-Feb-20 13:00N 29°33' W 095°02'0 0.0
2018-Feb-20 12:29N 29°33' W 095°02'0 0.0
2018-Feb-20 11:56N 29°33' W 095°02'0 0.0
2018-Feb-20 11:19N 29°33' W 095°02'0 0.0
2018-Feb-20 11:00N 29°33' W 095°02'0 0.0
2018-Feb-20 10:31N 29°33' W 095°02'0 0.0
2018-Feb-20 10:01N 29°33' W 095°02'0 0.0
2018-Feb-20 09:30N 29°33' W 095°02'0 0.0
2018-Feb-20 08:59N 29°33' W 095°02'0 0.0
2018-Feb-20 08:31N 29°33' W 095°02'0 0.0
2018-Feb-20 08:01N 29°33' W 095°02'0 0.0
2018-Feb-20 07:30N 29°33' W 095°02'0 0.0
2018-Feb-20 06:59N 29°33' W 095°02'0 0.0
2018-Feb-20 06:30N 29°33' W 095°02'0 0.0
2018-Feb-20 06:00N 29°33' W 095°02'0 0.0
2018-Feb-20 05:30N 29°33' W 095°02'0 0.0
2018-Feb-20 05:00N 29°33' W 095°02'0 0.0
2018-Feb-20 04:28N 29°33' W 095°02'1 2.3
2018-Feb-20 04:00N 29°33' W 095°01'3 6.6
2018-Feb-20 03:30N 29°33' W 094°57'4 6.7
2018-Feb-20 02:58N 29°31' W 094°53'9 1.5
2018-Feb-19 20:49N 29°23' W 094°51'0 0.0
2018-Feb-19 20:30N 29°23' W 094°51'1 1.4
2018-Feb-19 19:58N 29°23' W 094°51'5 5.9
2018-Feb-19 19:11N 29°28' W 094°52'2 6.0
2018-Feb-19 18:50N 29°30' W 094°53'2 5.8
2018-Feb-19 18:29N 29°32' W 094°54'3 5.5
2018-Feb-19 18:01N 29°33' W 094°57'3 5.3
2018-Feb-19 17:30N 29°33' W 094°60'2 4.0
2018-Feb-19 17:01N 29°33' W 095°02'1 1.1
2018-Feb-19 16:31N 29°33' W 095°03'0 0.4
2018-Feb-19 15:56N 29°33' W 095°02'0 0.0
2018-Feb-19 15:31N 29°33' W 095°02'0 0.0
2018-Feb-19 15:01N 29°33' W 095°02'0 0.0
2018-Feb-19 14:30N 29°33' W 095°02'0 0.0
2018-Feb-19 14:01N 29°33' W 095°02'0 0.0
2018-Feb-19 13:31N 29°33' W 095°02'0 0.0
2018-Feb-19 13:00N 29°33' W 095°02'0 0.1
2018-Feb-19 12:29N 29°33' W 095°02'2 3.2
2018-Feb-19 12:01N 29°33' W 095°00'3 6.5
2018-Feb-19 11:30N 29°33' W 094°57'4 6.5
2018-Feb-19 10:57N 29°31' W 094°53'4 7.7
2018-Feb-19 10:25N 29°27' W 094°51'4 7.8
2018-Feb-19 09:57N 29°24' W 094°49'2 5.7
2018-Feb-19 09:30N 29°23' W 094°47'1 1.2
2018-Feb-19 09:00N 29°23' W 094°46'0 0.0
2018-Feb-19 08:30N 29°23' W 094°46'0 0.0
2018-Feb-19 07:58N 29°23' W 094°46'0 0.0
2018-Feb-19 07:30N 29°23' W 094°46'0 0.0
2018-Feb-19 07:01N 29°23' W 094°46'0 0.0
2018-Feb-19 06:30N 29°23' W 094°46'0 0.0
2018-Feb-19 06:00N 29°23' W 094°46'0 0.0
2018-Feb-19 05:30N 29°23' W 094°46'0 0.0
2018-Feb-19 05:00N 29°23' W 094°46'0 0.0
2018-Feb-19 04:29N 29°23' W 094°46'0 0.0
2018-Feb-19 04:01N 29°23' W 094°46'0 0.0
2018-Feb-18 20:05N 29°23' W 094°46'0 0.0
2018-Feb-18 19:51N 29°23' W 094°46'0 0.0
2018-Feb-18 19:27N 29°23' W 094°46'0 0.0
2018-Feb-18 19:00N 29°23' W 094°46'0 0.0
2018-Feb-18 18:24N 29°23' W 094°46'0 0.0
2018-Feb-18 17:56N 29°23' W 094°46'0 0.0
2018-Feb-18 17:29N 29°23' W 094°46'0 0.0
2018-Feb-18 16:59N 29°23' W 094°46'0 0.0
2018-Feb-18 16:26N 29°23' W 094°46'0 0.0
2018-Feb-18 15:58N 29°23' W 094°46'0 0.0
2018-Feb-18 15:29N 29°23' W 094°46'0 0.0
2018-Feb-18 14:54N 29°23' W 094°46'0 0.0
2018-Feb-18 14:29N 29°23' W 094°46'0 0.0
2018-Feb-18 13:10N 29°23' W 094°46'0 0.0
2018-Feb-18 11:44N 29°23' W 094°46'0 0.0
2018-Feb-18 09:54N 29°23' W 094°46'0 0.0
2018-Feb-18 07:40N 29°23' W 094°46'0 0.0
2018-Feb-18 02:08N 29°23' W 094°46'0 0.0
2018-Feb-18 01:30N 29°23' W 094°46'0 0.0
2018-Feb-17 23:51N 29°23' W 094°46'0 0.0
2018-Feb-17 23:29N 29°23' W 094°46'0 0.0
2018-Feb-17 22:46N 29°23' W 094°46'0 0.0
2018-Feb-17 22:24N 29°23' W 094°46'0 0.0
2018-Feb-17 08:44N 29°23' W 094°46'0 0.0
2018-Feb-17 07:55N 29°23' W 094°46'0 0.0
2018-Feb-17 07:30N 29°23' W 094°46'0 0.0
2018-Feb-17 05:33N 29°23' W 094°46'0 0.0
2018-Feb-17 05:30N 29°23' W 094°46'0 0.0
2018-Feb-17 04:50N 29°23' W 094°46'0 0.0
2018-Feb-17 04:28N 29°23' W 094°46'0 0.0
2018-Feb-17 04:00N 29°23' W 094°46'0 0.0
2018-Feb-17 03:30N 29°23' W 094°46'0 0.0
2018-Feb-17 02:58N 29°23' W 094°46'0 0.0
2018-Feb-17 02:16N 29°23' W 094°46'0 0.0
2018-Feb-17 02:01N 29°23' W 094°46'0 0.0
2018-Feb-17 01:30N 29°23' W 094°46'0 0.0
2018-Feb-17 00:52N 29°23' W 094°46'0 0.0
2018-Feb-17 00:30N 29°23' W 094°46'0 0.0
2018-Feb-16 23:58N 29°23' W 094°46'0 0.0
2018-Feb-16 23:30N 29°23' W 094°46'0 0.0
2018-Feb-16 10:01N 29°23' W 094°46'0 0.0
2018-Feb-16 09:03N 29°23' W 094°46'0 0.0
2018-Feb-16 08:55N 29°23' W 094°46'0 0.0
2018-Feb-16 08:28N 29°23' W 094°46'0 0.0
2018-Feb-16 07:56N 29°23' W 094°46'0 0.0
2018-Feb-16 07:29N 29°23' W 094°46'0 0.0
2018-Feb-16 06:59N 29°23' W 094°46'0 0.0
2018-Feb-16 06:30N 29°23' W 094°46'0 0.0
2018-Feb-16 06:01N 29°23' W 094°46'0 0.0
2018-Feb-16 05:30N 29°23' W 094°46'0 0.0
2018-Feb-16 05:00N 29°23' W 094°46'0 0.0
2018-Feb-16 04:30N 29°23' W 094°46'0 0.0
2018-Feb-16 03:59N 29°23' W 094°46'0 0.0
2018-Feb-16 03:29N 29°23' W 094°46'0 0.0
2018-Feb-16 03:00N 29°23' W 094°46'0 0.0
2018-Feb-16 02:30N 29°23' W 094°46'0 0.0
2018-Feb-16 02:00N 29°23' W 094°46'0 0.0
2018-Feb-16 01:24N 29°23' W 094°46'0 0.0
2018-Feb-16 00:56N 29°23' W 094°46'0 0.0
2018-Feb-16 00:30N 29°23' W 094°46'0 0.0
2018-Feb-15 23:51N 29°23' W 094°46'0 0.0
2018-Feb-15 23:30N 29°23' W 094°46'0 0.0
2018-Feb-15 22:28N 29°23' W 094°46'0 0.0
2018-Feb-15 21:56N 29°23' W 094°46'0 0.0
2018-Feb-15 20:58N 29°23' W 094°46'0 0.0
2018-Feb-15 20:24N 29°23' W 094°46'0 0.0
2018-Feb-15 16:26N 29°23' W 094°46'0 0.0
2018-Feb-15 15:38N 29°23' W 094°46'0 0.1
2018-Feb-15 15:31N 29°23' W 094°46'0 0.0
2018-Feb-15 14:21N 29°23' W 094°46'0 0.0
2018-Feb-15 13:30N 29°23' W 094°46'0 0.0
2018-Feb-15 12:56N 29°23' W 094°46'0 0.0
2018-Feb-15 11:47N 29°23' W 094°46'0 0.0
2018-Feb-15 11:22N 29°23' W 094°46'0 0.0
2018-Feb-15 10:25N 29°23' W 094°46'0 0.0
2018-Feb-15 09:59N 29°23' W 094°46'0 0.0
2018-Feb-15 09:30N 29°23' W 094°46'0 0.0
2018-Feb-15 09:00N 29°23' W 094°46'0 0.0
2018-Feb-15 08:30N 29°23' W 094°46'0 0.0
2018-Feb-15 08:00N 29°23' W 094°46'0 0.0
2018-Feb-15 07:30N 29°23' W 094°46'0 0.0
2018-Feb-15 07:01N 29°23' W 094°46'0 0.0
2018-Feb-15 06:30N 29°23' W 094°46'0 0.0
2018-Feb-15 06:00N 29°23' W 094°46'0 0.0
2018-Feb-15 05:30N 29°23' W 094°46'0 0.0
2018-Feb-15 05:00N 29°23' W 094°46'0 0.0
2018-Feb-15 04:30N 29°23' W 094°46'0 0.0
2018-Feb-15 04:01N 29°23' W 094°46'0 0.0
2018-Feb-15 03:30N 29°23' W 094°46'0 0.0
2018-Feb-15 03:01N 29°23' W 094°46'0 0.0
2018-Feb-15 02:31N 29°23' W 094°46'0 0.0
2018-Feb-15 01:53N 29°23' W 094°46'0 0.0
2018-Feb-15 01:30N 29°23' W 094°46'0 0.0
2018-Feb-15 00:49N 29°23' W 094°46'0 0.0
2018-Feb-15 00:22N 29°23' W 094°46'0 0.0
2018-Feb-14 23:57N 29°23' W 094°46'0 0.0
2018-Feb-14 23:14N 29°23' W 094°46'0 0.0
2018-Feb-14 22:59N 29°23' W 094°46'0 0.0
2018-Feb-14 22:29N 29°23' W 094°46'0 0.0
2018-Feb-14 21:39N 29°23' W 094°46'0 0.0
2018-Feb-14 20:16N 29°23' W 094°46'0 0.0
2018-Feb-14 19:35N 29°23' W 094°46'0 0.1
2018-Feb-14 19:29N 29°23' W 094°46'0 0.0
2018-Feb-14 18:59N 29°23' W 094°46'0 0.0
2018-Feb-14 18:30N 29°23' W 094°46'0 0.0
2018-Feb-14 17:58N 29°23' W 094°46'0 0.0
2018-Feb-14 17:30N 29°23' W 094°46'0 0.0
2018-Feb-14 17:00N 29°23' W 094°46'0 0.0
2018-Feb-14 16:26N 29°23' W 094°46'0 0.0
2018-Feb-14 16:00N 29°23' W 094°46'0 0.0
2018-Feb-14 15:28N 29°23' W 094°46'0 0.0
2018-Feb-14 15:00N 29°23' W 094°46'0 0.0
2018-Feb-14 14:30N 29°23' W 094°46'0 0.0
2018-Feb-14 13:52N 29°23' W 094°46'0 0.0
2018-Feb-14 13:28N 29°23' W 094°46'0 0.0
2018-Feb-14 12:59N 29°23' W 094°46'0 0.0
2018-Feb-14 12:21N 29°23' W 094°46'0 0.0
2018-Feb-14 11:57N 29°23' W 094°46'0 0.0
2018-Feb-14 11:20N 29°23' W 094°46'0 0.0
2018-Feb-14 10:58N 29°23' W 094°46'0 0.0
2018-Feb-14 04:05N 29°23' W 094°46'12 1.7
2018-Feb-13 21:02N 29°32' W 094°54'0 6.4
2018-Feb-13 21:01N 29°32' W 094°54'3 6.2
2018-Feb-13 20:30N 29°33' W 094°58'2 3.6
2018-Feb-13 20:01N 29°33' W 094°60'0 0.0
2018-Feb-13 19:31N 29°33' W 094°60'0 0.0
2018-Feb-13 19:00N 29°33' W 094°60'0 0.0
2018-Feb-13 18:30N 29°33' W 094°60'0 0.4
2018-Feb-13 18:01N 29°33' W 095°00'2 3.4
2018-Feb-13 17:31N 29°33' W 095°02'0 0.5
2018-Feb-13 17:00N 29°33' W 095°02'0 0.0
2018-Feb-13 16:30N 29°33' W 095°02'0 0.0
2018-Feb-13 16:00N 29°33' W 095°02'0 0.0
2018-Feb-13 15:28N 29°33' W 095°02'0 0.0
2018-Feb-13 15:01N 29°33' W 095°02'0 0.0
2018-Feb-13 14:31N 29°33' W 095°02'0 0.0
2018-Feb-13 14:01N 29°33' W 095°02'0 0.1
2018-Feb-13 13:30N 29°33' W 095°02'0 0.4
2018-Feb-13 13:00N 29°33' W 095°02'0 0.0
2018-Feb-13 12:31N 29°33' W 095°02'0 0.0
2018-Feb-13 12:00N 29°33' W 095°02'0 0.0
2018-Feb-13 11:30N 29°33' W 095°02'0 0.0
2018-Feb-13 11:01N 29°33' W 095°02'0 0.0
2018-Feb-13 10:31N 29°33' W 095°02'0 0.0
2018-Feb-13 10:01N 29°33' W 095°02'1 0.2
2018-Feb-13 02:08N 29°33' W 095°01'1 5.9
2018-Feb-13 02:01N 29°33' W 094°60'3 6.6
2018-Feb-13 01:31N 29°32' W 094°56'2 0.2
2018-Feb-12 18:34N 29°32' W 094°54'0 5.6
2018-Feb-12 18:30N 29°32' W 094°55'3 5.9
2018-Feb-12 18:01N 29°33' W 094°58'3 5.4
2018-Feb-12 17:30N 29°33' W 095°01'1 2.1
2018-Feb-12 17:01N 29°33' W 095°02'0 0.4
2018-Feb-12 16:31N 29°33' W 095°02'0 0.0
2018-Feb-12 16:01N 29°33' W 095°02'0 0.0
2018-Feb-12 15:31N 29°33' W 095°02'0 0.0
2018-Feb-12 15:01N 29°33' W 095°02'0 0.0
2018-Feb-12 14:31N 29°33' W 095°02'0 0.0
2018-Feb-12 14:00N 29°33' W 095°02'0 0.0
2018-Feb-12 13:30N 29°33' W 095°02'0 0.0
2018-Feb-12 13:00N 29°33' W 095°02'0 0.9
2018-Feb-12 12:30N 29°33' W 095°02'2 4.1
2018-Feb-12 12:00N 29°33' W 094°59'3 6.4
2018-Feb-12 11:28N 29°32' W 094°55'12 1.3
2018-Feb-12 01:42N 29°23' W 094°46'0 0.0
2018-Feb-12 01:29N 29°23' W 094°46'  

Dump ship's entire track history